Main page
METAR-TAF:

METAR-TAF

Airports :

Havryshivka Vinnytsia International Airport

Vinnytsia, Ukraine

latitude: 49-14-23N, longitude: 028-36-50E, elevation: 974 m

Current weather observation

The report was made 1 hour and 43 minutes ago, at 18:00 UTC
Wind 14 kt from the West/Northwest
Temperature 3°C
Humidity 60%
Pressure 1025 hPa
Visibility 10 km or more
no clouds below 1500 m and no cumulonimbus

METAR: UKWW 211800Z 29007MPS CAVOK 03/M04 Q1025 R31/0///65 NOSIG

Time: 21:43 (19:43 UTC)

Forecast

The report was made 2 hours and 33 minutes ago, at 17:10 UTC
Forecast valid from 21 at 18 UTC to 22 at 03 UTC
Wind 14 kt from the West with gusts up to 23 kt
Visibility 10 km or more
Scattered clouds at a height of 2500 ft
Temporary
from 21 at 18 UTC to 21 at 21 UTC
Wind 19 kt from the West with gusts up to 29 kt

TAF: UKWW 211710Z 2118/2203 28007G12MPS 9999 SCT025 TX03/2118Z TN01/2203Z TEMPO 2118/2121 27010G15MPS

Weather observations and forecasts of more than 4000 airports (METAR and TAF reports).

The available stations are represented by yellow and red dots on the map.

Hover mouse over dot to see the name of the station.

Then click to see weather observations and forecasts.

To change the map : click on the green buttons with a black cross to zoom in, on the green button with a dash to zoom out, or on the green arrows for adjacent maps.


METAR-TAF: